Flight Track Log - Related Links

Times and Time Zones

All times are in EDT time to prevent confusion due to time zone crossing. See the GJS3657 flight status page for this flight to view local times or setup timezone preferences in your user account.


Time Position Orientation Groundspeed Altitude Reporting Facility
EDT Latitude Longitude Course Direction KTS MPH feet Rate Location/Type
Wed 07:00:05 AM 42.7672 -73.8061 345° North 140 161 1,300  Level Boston Center
Wed 07:00:53 AM 42.8006 -73.8181 345° North 158 182 2,800 1,940 Climbing Boston Center
Wed 07:02:18 AM 42.8581 -73.8958 315° West 217 250 5,600 2,400 Climbing Boston Center
Wed 07:03:18 AM 42.9072 -73.9594 317° Northwest 242 278 8,600 2,500 Climbing Boston Center
Wed 07:04:18 AM 42.9667 -74.0347 317° Northwest 247 284 10,600 2,050 Climbing Boston Center
Wed 07:05:18 AM 43.0239 -74.1072 317° Northwest 294 338 12,700 2,000 Climbing Boston Center
Wed 07:06:18 AM 43.0994 -74.2031 317° Northwest 324 373 14,600 2,000 Climbing Boston Center
Wed 07:07:18 AM 43.1481 -74.2928 307° West 331 381 16,700 2,050 Climbing Boston Center
Wed 07:08:18 AM 43.1500 -74.4350 271° West 325 374 18,700 1,900 Climbing Boston Center
Wed 07:09:18 AM 43.1517 -74.5717 271° West 349 402 20,500 1,591 Climbing Boston Center
Wed 07:10:30 AM 43.1553 -74.7086 272° West 355 409 22,200 1,500 Climbing Boston Center
Wed 07:11:30 AM 43.1558 -74.8794 270° West 369 425 23,800 1,200 Climbing Boston Center
Wed 07:12:30 AM 43.1572 -75.0075 271° West 375 432 24,600 1,000 Climbing Boston Center
Wed 07:13:30 AM 43.1578 -75.1611 270° West 391 450 25,800 1,200 Climbing Boston Center
Wed 07:14:30 AM 43.1583 -75.3150 270° West 401 461 27,000 1,250 Climbing Boston Center
Wed 07:15:30 AM 43.1603 -75.4717 271° West 406 467 28,300 1,250 Climbing Boston Center
Wed 07:16:30 AM 43.1606 -75.6225 270° West 406 467 29,500 1,200 Climbing Boston Center
Wed 07:17:30 AM 43.1622 -75.7764 271° West 406 467 30,700 1,150 Climbing Boston Center
Wed 07:18:30 AM 43.1619 -75.9272 270° West 400 460 31,800 1,011 Climbing Boston Center
Wed 07:20:34 AM 43.1603 -76.2422 270° West 415 478 33,800 978 Climbing Cleveland Center
Wed 07:21:34 AM 43.1617 -76.3875 271° West 410 472 34,800 1,000 Climbing Cleveland Center
Wed 07:22:34 AM 43.1625 -76.5328 271° West 399 459 35,800 900 Climbing Cleveland Center
Wed 07:23:34 AM 43.1614 -76.6781 269° West 394 453 36,600 850 Climbing Cleveland Center
Wed 07:24:34 AM 43.1597 -76.8203 269° West 386 444 37,500 700 Climbing Cleveland Center
Wed 07:25:34 AM 43.1603 -76.9628 270° West 381 438 38,000 250 Climbing Cleveland Center
Wed 07:26:34 AM 43.1583 -77.1081 269° West 387 445 38,000  Level Cleveland Center
Wed 07:27:34 AM 43.1564 -77.2561 269° West 387 445 38,000  Level Cleveland Center
Wed 07:28:34 AM 43.1544 -77.4072 269° West 392 451 38,000  Level Cleveland Center
Wed 07:29:34 AM 43.1544 -77.5608 270° West 404 465 38,000  Level Cleveland Center
Wed 07:30:34 AM 43.1542 -77.7117 270° West 404 465 38,000  Level Cleveland Center
Wed 07:31:34 AM 43.1494 -77.8656 268° West 404 465 38,000  Level Cleveland Center
Wed 07:32:34 AM 43.1508 -78.0164 271° West 404 465 38,000  Level Cleveland Center
Wed 07:33:34 AM 43.1458 -78.1675 267° West 404 465 38,000  Level Cleveland Center
Wed 07:34:34 AM 43.1447 -78.3211 269° West 404 465 38,000  Level Cleveland Center
Wed 07:35:34 AM 43.1392 -78.4750 267° West 404 465 38,000  Level Cleveland Center
Wed 07:36:34 AM 43.1356 -78.6231 268° West 404 465 38,000  Level Cleveland Center
Wed 07:37:34 AM 43.1319 -78.7797 268° West 404 465 38,000  Level Cleveland Center
Wed 07:38:34 AM 43.1278 -78.9333 268° West 404 465 38,000  Level Cleveland Center
Wed 07:39:34 AM 43.1236 -79.0842 268° West 404 465 38,000  Level Cleveland Center
Wed 07:40:33 AM 43.1000 -79.2167 256° West 410 472 38,000  Level Toronto Center
Wed 07:41:33 AM 43.1000 -79.3833 270° West 410 472 38,000  Level Toronto Center
Wed 07:42:33 AM 43.1000 -79.5500 270° West 410 472 38,000  Level Toronto Center
Wed 07:43:33 AM 43.0833 -79.7000 261° West 410 472 38,000  Level Toronto Center
Wed 07:44:33 AM 43.0833 -79.8667 270° West 410 472 38,000  Level Toronto Center
Wed 07:45:33 AM 43.0833 -80.0167 270° West 410 472 38,000  Level Toronto Center
Wed 07:46:33 AM 43.0667 -80.1833 262° West 420 483 38,000  Level Toronto Center
Wed 07:47:33 AM 43.0667 -80.3167 270° West 420 483 38,000  Level Toronto Center
Wed 07:48:33 AM 43.0667 -80.4833 270° West 420 483 38,000  Level Toronto Center
Wed 07:49:33 AM 43.0500 -80.6667 263° West 420 483 38,000  Level Toronto Center
Wed 07:50:33 AM 43.0500 -80.8000 270° West 420 483 38,000  Level Toronto Center
Wed 07:51:33 AM 43.0333 -80.9500 261° West 420 483 38,000  Level Toronto Center
Wed 07:52:33 AM 43.0167 -81.1167 262° West 420 483 38,000  Level Toronto Center
Wed 07:53:33 AM 43.0167 -81.2667 270° West 420 483 38,000  Level Toronto Center
Wed 07:54:33 AM 43.0167 -81.4333 270° West 420 483 38,000  Level Toronto Center
Wed 07:55:33 AM 43.0167 -81.6000 270° West 420 483 38,000  Level Toronto Center
Wed 07:56:33 AM 43.0167 -81.7500 270° West 410 472 38,000  Level Toronto Center
Wed 07:57:33 AM 43.0000 -81.9167 262° West 410 472 38,000  Level Toronto Center
Wed 07:58:33 AM 43.0000 -82.0500 270° West 400 460 38,000  Level Toronto Center
Wed 07:59:33 AM 43.0000 -82.2167 270° West 400 460 38,000  Level Toronto Center
Wed 08:00:33 AM 43.0000 -82.3667 270° West 400 460 38,000  Level Toronto Center
Wed 08:01:33 AM 43.0000 -82.5000 270° West 390 449 38,000 -350 Level Toronto Center
Wed 08:02:33 AM 42.9833 -82.6667 262° West 400 460 37,300 -900 Descending Toronto Center
Wed 08:03:33 AM 42.9833 -82.8167 270° West 410 472 36,200 -1,050 Descending Toronto Center
Wed 08:04:33 AM 42.9833 -82.9833 270° West 420 483 35,200 -950 Descending Toronto Center
Wed 08:05:33 AM 42.9833 -83.1500 270° West 420 483 34,300 -1,000 Descending Toronto Center
Wed 08:06:33 AM 42.9667 -83.3000 261° West 420 483 33,200 -1,050 Descending Toronto Center
Wed 08:07:33 AM 42.9667 -83.4667 270° West 420 483 32,200 -497 Descending Toronto Center
Wed 08:08:58 AM 42.9689 -83.6761 271° West 419 482 32,000 -83 Descending Cleveland Center
Wed 08:09:58 AM 42.9586 -83.8286 265° West 419 482 32,000  Level Cleveland Center
Wed 08:10:58 AM 42.9439 -83.9756 262° West 408 470 32,000  Level Cleveland Center
Wed 08:11:58 AM 42.9311 -84.1222 263° West 403 464 32,000  Level Cleveland Center
Wed 08:12:58 AM 42.9161 -84.2689 262° West 403 464 32,000  Level Cleveland Center
Wed 08:13:50 AM 42.9039 -84.3903 262° West 400 460 32,000  Level Chicago Center
Wed 08:14:52 AM 42.8889 -84.5392 262° West 399 459 32,000  Level Chicago Center
Wed 08:15:54 AM 42.8703 -84.7197 262° West 401 461 32,000  Level Chicago Center
Wed 08:16:57 AM 42.8553 -84.8694 262° West 400 460 32,000  Level Chicago Center
Wed 08:17:59 AM 42.8381 -85.0222 261° West 406 467 32,000  Level Chicago Center
Wed 08:19:01 AM 42.8217 -85.1744 262° West 407 468 32,000  Level Chicago Center
Wed 08:20:03 AM 42.8058 -85.3239 262° West 401 461 32,000 -919 Level Chicago Center
Wed 08:21:05 AM 42.7892 -85.4731 261° West 398 458 30,100 -2,274 Descending Chicago Center
Wed 08:22:07 AM 42.7603 -85.6408 257° West 380 437 27,300 -2,323 Descending Chicago Center
Wed 08:23:09 AM 42.7353 -85.7761 256° West 369 425 25,300 -1,887 Descending Chicago Center
Wed 08:24:11 AM 42.7117 -85.9103 257° West 364 419 23,400 -1,742 Descending Chicago Center
Wed 08:25:13 AM 42.6867 -86.0453 256° West 367 422 21,700 -1,403 Descending Chicago Center
Wed 08:26:15 AM 42.6622 -86.1847 257° West 377 434 20,500 -1,016 Descending Chicago Center
Wed 08:27:17 AM 42.6367 -86.3194 256° West 371 427 19,600 -1,306 Descending Chicago Center
Wed 08:28:19 AM 42.6117 -86.4558 256° West 371 427 17,800 -1,935 Descending Chicago Center
Wed 08:29:21 AM 42.5817 -86.6119 255° West 360 414 15,600 -1,920 Descending Chicago Center
Wed 08:30:24 AM 42.5583 -86.7364 256° West 344 396 13,800 -1,584 Descending Chicago Center
Wed 08:31:26 AM 42.5253 -86.8547 249° West 338 389 12,300 -1,161 Descending Chicago Center
Wed 08:32:28 AM 42.4969 -86.9578 250° West 297 342 11,400 -1,016 Descending Chicago Center
Wed 08:33:30 AM 42.4697 -87.0575 250° West 286 329 10,200 -1,065 Descending Chicago Center
Wed 08:34:32 AM 42.4419 -87.1558 249° West 284 327 9,200 -677 Descending Chicago Center
Wed 08:35:34 AM 42.4067 -87.2731 248° West 281 323 8,800 -774 Descending Chicago Center
Wed 08:36:36 AM 42.3736 -87.3669 245° Southwest 279 321 7,600 -871 Descending Chicago Center
Wed 08:37:38 AM 42.3397 -87.4653 245° Southwest 271 312 7,000 -290 Descending Chicago Center
Wed 08:38:40 AM 42.3056 -87.5503 241° Southwest 274 315 7,000 -242 Level Chicago Center
Wed 08:39:42 AM 42.2481 -87.6153 220° Southwest 275 316 6,500 -823 Descending Chicago Center
Wed 08:40:44 AM 42.1892 -87.6817 220° Southwest 276 318 5,300 -1,152 Descending Chicago Center
Wed 08:41:47 AM 42.1269 -87.7533 221° Southwest 254 292 4,100 -1,152 Descending Chicago Center
Wed 08:42:49 AM 42.0825 -87.8031 220° Southwest 221 254 2,900 -1,016 Descending Chicago Center
Wed 08:43:51 AM 42.0433 -87.8453 219° Southwest 195 224 2,000 -956 Descending Chicago Center
Wed 08:44:42 AM 42.0167 -87.8833 227° Southwest 144 166 1,100 -1,059 Descending Chicago TRACON
Wed 08:47:00 AM 41.9817 -87.9067 North  Level Estimated

Login

Don't have an account? Register now (free) for customized features, flight alerts, and more!